createdAt,value
2022-09-18T00:01:38.816Z,9.89
2022-09-18T00:04:09.007Z,9.91
2022-09-18T00:06:38.147Z,9.87
2022-09-18T00:09:08.285Z,9.89
2022-09-18T00:11:37.533Z,9.92
2022-09-18T00:14:06.183Z,9.90
2022-09-18T00:16:34.555Z,9.96
2022-09-18T00:19:02.591Z,9.84
2022-09-18T00:21:35.849Z,9.85
2022-09-18T00:24:04.725Z,10.03
2022-09-18T00:26:33.338Z,9.85
2022-09-18T00:29:01.347Z,9.84
2022-09-18T00:31:30.585Z,9.99
2022-09-18T00:33:59.330Z,9.87
2022-09-18T00:36:27.575Z,9.95
2022-09-18T00:38:59.220Z,9.88
2022-09-18T00:41:28.422Z,9.94
2022-09-18T00:43:58.396Z,9.77
2022-09-18T00:46:31.635Z,9.97
2022-09-18T00:49:04.015Z,9.83
2022-09-18T00:51:32.906Z,9.77
2022-09-18T00:54:07.605Z,9.67
2022-09-18T00:56:36.064Z,9.89
2022-09-18T00:59:05.257Z,9.78
2022-09-18T01:01:33.344Z,9.70
2022-09-18T01:04:01.442Z,9.65
2022-09-18T01:06:34.478Z,9.87
2022-09-18T01:09:09.320Z,9.78
2022-09-18T01:11:39.780Z,9.63
2022-09-18T01:14:24.672Z,9.82
2022-09-18T01:16:57.455Z,9.57
2022-09-18T01:19:32.328Z,9.62
2022-09-18T01:22:05.615Z,9.56
2022-09-18T01:24:51.621Z,9.63
2022-09-18T01:27:26.165Z,9.52
2022-09-18T01:29:58.959Z,9.70
2022-09-18T01:32:28.872Z,9.63
2022-09-18T01:34:59.644Z,9.85
2022-09-18T01:37:30.956Z,9.53
2022-09-18T01:40:02.624Z,9.87
2022-09-18T01:42:33.885Z,9.80
2022-09-18T01:45:07.105Z,9.57
2022-09-18T01:47:38.250Z,9.63
2022-09-18T01:50:09.107Z,9.75
2022-09-18T01:52:39.008Z,9.65
2022-09-18T01:55:10.243Z,9.51
2022-09-18T01:57:42.158Z,9.51
2022-09-18T02:00:13.838Z,9.57
2022-09-18T02:02:47.259Z,9.51
2022-09-18T02:05:19.391Z,9.61
2022-09-18T02:07:50.613Z,9.50
2022-09-18T02:10:21.360Z,9.53
2022-09-18T02:12:49.867Z,9.61
2022-09-18T02:15:19.587Z,9.55
2022-09-18T02:17:56.415Z,9.60
2022-09-18T02:20:31.375Z,9.55
2022-09-18T02:23:01.766Z,9.60
2022-09-18T02:25:32.232Z,9.48
2022-09-18T02:28:01.544Z,9.54
2022-09-18T02:30:31.249Z,9.67
2022-09-18T02:33:00.903Z,9.34
2022-09-18T02:35:35.699Z,9.60
2022-09-18T02:38:06.051Z,9.51
2022-09-18T02:40:41.869Z,9.51
2022-09-18T02:43:19.787Z,9.52
2022-09-18T02:45:54.704Z,9.55
2022-09-18T02:48:31.094Z,9.53
2022-09-18T02:51:03.325Z,9.56
2022-09-18T02:53:36.834Z,9.74
2022-09-18T02:56:06.592Z,9.72
2022-09-18T02:58:39.313Z,9.55
2022-09-18T03:01:11.286Z,9.55
2022-09-18T03:03:39.994Z,9.51
2022-09-18T03:06:10.538Z,9.62
2022-09-18T03:08:39.171Z,9.61
2022-09-18T03:11:07.511Z,9.57
2022-09-18T03:13:35.906Z,9.48
2022-09-18T03:16:04.552Z,9.77
2022-09-18T03:18:34.425Z,9.62
2022-09-18T03:21:02.472Z,9.46
2022-09-18T03:23:30.632Z,9.63
2022-09-18T03:26:10.910Z,9.67
2022-09-18T03:28:39.606Z,9.57
2022-09-18T03:31:07.785Z,9.61
2022-09-18T03:33:37.600Z,9.58
2022-09-18T03:36:06.080Z,9.63
2022-09-18T03:38:34.444Z,9.56
2022-09-18T03:41:02.614Z,9.52
2022-09-18T03:43:31.042Z,9.51
2022-09-18T03:45:59.299Z,9.57
2022-09-18T03:48:27.288Z,9.69
2022-09-18T03:50:56.709Z,9.50
2022-09-18T03:53:24.808Z,9.65
2022-09-18T03:56:02.159Z,9.61
2022-09-18T03:58:36.232Z,9.62
2022-09-18T04:01:35.016Z,9.61
2022-09-18T04:04:23.692Z,9.62
2022-09-18T04:07:11.436Z,9.71
2022-09-18T04:10:09.317Z,9.67
2022-09-18T04:12:39.463Z,9.76
2022-09-18T04:15:16.360Z,9.70
2022-09-18T04:17:48.032Z,9.72
2022-09-18T04:20:16.175Z,9.68
2022-09-18T04:22:45.586Z,9.59
2022-09-18T04:25:13.573Z,9.54
2022-09-18T04:27:42.090Z,9.40
2022-09-18T04:30:10.774Z,9.63
2022-09-18T04:32:42.726Z,9.45
2022-09-18T04:35:11.132Z,9.62
2022-09-18T04:37:45.467Z,9.68
2022-09-18T04:40:14.085Z,9.63
2022-09-18T04:42:42.646Z,9.57
2022-09-18T04:45:12.018Z,9.46
2022-09-18T04:47:41.938Z,9.56
2022-09-18T04:50:10.923Z,9.56
2022-09-18T04:53:00.328Z,9.53
2022-09-18T04:55:29.709Z,9.70
2022-09-18T04:57:57.794Z,9.49
2022-09-18T05:00:25.972Z,9.58
2022-09-18T05:02:54.115Z,9.65
2022-09-18T05:05:25.698Z,9.65
2022-09-18T05:07:53.921Z,9.76
2022-09-18T05:10:26.210Z,9.51
2022-09-18T05:12:54.314Z,9.54
2022-09-18T05:15:22.656Z,9.89
2022-09-18T05:17:59.283Z,9.81
2022-09-18T05:20:36.541Z,9.87
2022-09-18T05:23:08.387Z,9.66
2022-09-18T05:25:39.124Z,9.99
2022-09-18T05:28:07.190Z,9.54
2022-09-18T05:30:43.155Z,9.60
2022-09-18T05:33:12.908Z,9.49
2022-09-18T05:35:42.925Z,9.58
2022-09-18T05:38:11.451Z,9.82
2022-09-18T05:40:45.028Z,9.70
2022-09-18T05:43:15.695Z,9.72
2022-09-18T05:45:44.700Z,9.84
2022-09-18T05:48:20.291Z,9.53
2022-09-18T05:50:48.400Z,9.86
2022-09-18T05:53:18.602Z,9.68
2022-09-18T05:56:03.947Z,9.54
2022-09-18T05:58:32.910Z,9.78
2022-09-18T06:01:04.507Z,9.86
2022-09-18T06:03:51.575Z,9.86
2022-09-18T06:06:21.068Z,9.88
2022-09-18T06:08:50.288Z,9.74
2022-09-18T06:11:19.656Z,9.68
2022-09-18T06:13:49.065Z,9.68
2022-09-18T06:16:17.173Z,9.94
2022-09-18T06:18:52.988Z,10.00
2022-09-18T06:21:22.616Z,9.97
2022-09-18T06:23:50.635Z,9.83
2022-09-18T06:26:28.482Z,10.02
2022-09-18T06:28:56.456Z,9.81
2022-09-18T06:31:24.890Z,9.80
2022-09-18T06:34:01.541Z,10.18
2022-09-18T06:36:29.616Z,10.13
2022-09-18T06:39:11.547Z,10.00
2022-09-18T06:41:42.755Z,9.91
2022-09-18T06:44:20.183Z,9.78
2022-09-18T06:46:54.877Z,9.95
2022-09-18T06:49:35.527Z,10.00
2022-09-18T06:52:04.994Z,10.18
2022-09-18T06:54:34.929Z,10.10
2022-09-18T06:57:07.216Z,10.24
2022-09-18T06:59:37.064Z,10.14
2022-09-18T07:02:05.415Z,10.18
2022-09-18T07:05:05.694Z,10.24
2022-09-18T07:07:37.399Z,10.52
2022-09-18T07:10:09.031Z,10.32
2022-09-18T07:12:46.722Z,10.53
2022-09-18T07:15:15.269Z,10.56
2022-09-18T07:17:43.649Z,10.60
2022-09-18T07:20:14.982Z,10.85
2022-09-18T07:22:53.440Z,10.93
2022-09-18T07:25:22.909Z,10.78
2022-09-18T07:27:52.885Z,10.87
2022-09-18T07:30:22.278Z,10.86
2022-09-18T07:32:53.262Z,10.59
2022-09-18T07:35:26.696Z,10.63
2022-09-18T07:37:58.007Z,10.93
2022-09-18T07:40:37.736Z,11.01
2022-09-18T07:43:11.261Z,11.22
2022-09-18T07:45:45.978Z,10.96
2022-09-18T07:48:14.343Z,11.27
2022-09-18T07:50:47.581Z,11.24
2022-09-18T07:53:17.601Z,11.13
2022-09-18T07:55:48.516Z,10.98
2022-09-18T07:58:20.662Z,10.87
2022-09-18T08:01:01.316Z,11.27
2022-09-18T08:03:32.066Z,11.20
2022-09-18T08:06:22.979Z,11.07
2022-09-18T08:09:13.716Z,11.44
2022-09-18T08:11:59.084Z,11.46
2022-09-18T08:14:33.899Z,11.52
2022-09-18T08:17:20.898Z,11.30
2022-09-18T08:20:24.291Z,11.53
2022-09-18T08:22:55.389Z,11.75
2022-09-18T08:25:27.333Z,12.04
2022-09-18T08:27:55.927Z,11.68
2022-09-18T08:30:38.197Z,11.74
2022-09-18T08:33:11.861Z,11.99
2022-09-18T08:35:41.157Z,11.83
2022-09-18T08:38:19.958Z,11.74
2022-09-18T08:41:24.533Z,11.74
2022-09-18T08:43:57.331Z,11.84
2022-09-18T08:46:30.836Z,11.66
2022-09-18T08:49:02.727Z,11.64
2022-09-18T08:51:34.530Z,11.69
2022-09-18T08:54:14.272Z,11.64
2022-09-18T08:57:22.354Z,11.62
2022-09-18T09:00:16.937Z,11.50
2022-09-18T09:02:53.054Z,11.62
2022-09-18T09:05:22.597Z,12.06
2022-09-18T09:08:00.020Z,12.22
2022-09-18T09:10:36.744Z,12.03
2022-09-18T09:13:18.761Z,12.38
2022-09-18T09:15:51.895Z,12.01
2022-09-18T09:18:24.238Z,12.23
2022-09-18T09:20:53.069Z,12.23
2022-09-18T09:23:35.351Z,12.07
2022-09-18T09:26:12.841Z,12.18
2022-09-18T09:29:11.937Z,12.00
2022-09-18T09:31:57.281Z,11.97
2022-09-18T09:34:29.279Z,12.31
2022-09-18T09:37:03.572Z,12.78
2022-09-18T09:39:35.362Z,12.30
2022-09-18T09:42:07.686Z,12.44
2022-09-18T09:44:38.303Z,12.50
2022-09-18T09:47:15.118Z,12.33
2022-09-18T09:49:48.138Z,12.91
2022-09-18T09:52:20.249Z,13.03
2022-09-18T09:54:54.105Z,13.25
2022-09-18T09:57:27.450Z,13.36
2022-09-18T10:00:00.683Z,13.91
2022-09-18T10:02:57.257Z,13.77
2022-09-18T10:05:32.501Z,13.47
2022-09-18T10:08:03.871Z,13.22
2022-09-18T10:10:37.640Z,13.21
2022-09-18T10:13:07.403Z,13.73
2022-09-18T10:15:39.251Z,13.47
2022-09-18T10:18:16.332Z,14.46
2022-09-18T10:20:49.404Z,13.71
2022-09-18T10:23:20.911Z,14.12
2022-09-18T10:25:53.652Z,13.98
2022-09-18T10:28:25.538Z,14.29
2022-09-18T10:30:57.731Z,14.35
2022-09-18T10:33:33.093Z,14.48
2022-09-18T10:36:12.783Z,14.73
2022-09-18T10:38:41.180Z,14.11
2022-09-18T10:41:29.359Z,14.39
2022-09-18T10:44:02.411Z,14.19
2022-09-18T10:46:33.940Z,14.30
2022-09-18T10:49:05.871Z,14.22
2022-09-18T10:51:35.939Z,14.95
2022-09-18T10:54:05.933Z,14.59
2022-09-18T10:56:53.324Z,15.72
2022-09-18T10:59:39.467Z,15.21
2022-09-18T11:02:18.422Z,15.24
2022-09-18T11:04:47.747Z,14.86
2022-09-18T11:07:25.549Z,14.34
2022-09-18T11:09:54.674Z,14.59
2022-09-18T11:12:27.065Z,14.43
2022-09-18T11:15:02.254Z,15.09
2022-09-18T11:17:32.963Z,14.68
2022-09-18T11:20:06.938Z,14.65
2022-09-18T11:22:50.413Z,14.69
2022-09-18T11:25:31.793Z,15.18
2022-09-18T11:28:22.385Z,15.71
2022-09-18T11:30:58.276Z,15.30
2022-09-18T11:33:28.653Z,15.02
2022-09-18T11:36:01.667Z,14.63
2022-09-18T11:38:39.899Z,15.01
2022-09-18T11:41:09.666Z,15.11
2022-09-18T11:43:45.163Z,14.94
2022-09-18T11:46:24.953Z,14.99
2022-09-18T11:49:00.227Z,14.86
2022-09-18T11:51:51.636Z,14.94
2022-09-18T11:54:27.475Z,15.28
2022-09-18T11:56:59.010Z,15.16
2022-09-18T11:59:30.681Z,15.72
2022-09-18T12:02:02.806Z,16.42
2022-09-18T12:04:35.117Z,16.03
2022-09-18T12:07:06.420Z,16.06
2022-09-18T12:09:39.908Z,15.80
2022-09-18T12:12:09.734Z,16.41
2022-09-18T12:14:42.737Z,16.01
2022-09-18T12:17:23.599Z,15.38
2022-09-18T12:19:55.023Z,15.72
2022-09-18T12:22:27.999Z,16.09
2022-09-18T12:24:58.827Z,15.98
2022-09-18T12:27:52.963Z,16.50
2022-09-18T12:30:25.115Z,16.83
2022-09-18T12:33:13.377Z,16.47
2022-09-18T12:35:58.341Z,15.46
2022-09-18T12:38:41.822Z,15.26
2022-09-18T12:41:37.476Z,15.01
2022-09-18T12:44:26.971Z,14.84
2022-09-18T12:47:24.967Z,15.02
2022-09-18T12:50:06.513Z,14.61
2022-09-18T12:52:50.837Z,14.82
2022-09-18T12:55:40.220Z,14.54
2022-09-18T12:58:16.480Z,14.46
2022-09-18T13:00:46.469Z,14.63
2022-09-18T13:03:18.303Z,14.33
2022-09-18T13:05:51.284Z,14.28
2022-09-18T13:08:24.743Z,14.69
2022-09-18T13:10:57.839Z,14.48
2022-09-18T13:13:39.177Z,14.29
2022-09-18T13:16:13.787Z,14.02
2022-09-18T13:18:49.400Z,14.17
2022-09-18T13:21:26.371Z,13.99
2022-09-18T13:23:55.996Z,14.02
2022-09-18T13:26:27.299Z,14.08
2022-09-18T13:28:56.974Z,14.00
2022-09-18T13:31:29.035Z,14.09
2022-09-18T13:34:00.262Z,14.09
2022-09-18T13:36:31.785Z,14.09
2022-09-18T13:39:03.275Z,13.84
2022-09-18T13:41:42.114Z,13.67
2022-09-18T13:44:18.700Z,13.69
2022-09-18T13:46:46.925Z,13.80
2022-09-18T13:49:19.077Z,13.80
2022-09-18T13:51:47.374Z,14.01
2022-09-18T13:54:23.235Z,13.96
2022-09-18T13:57:17.407Z,14.10
2022-09-18T13:59:52.417Z,15.10
2022-09-18T14:02:27.914Z,15.03
2022-09-18T14:05:17.683Z,14.92
2022-09-18T14:08:04.506Z,15.12
2022-09-18T14:10:38.197Z,14.95
2022-09-18T14:13:29.206Z,15.14
2022-09-18T14:16:01.170Z,14.72
2022-09-18T14:18:34.447Z,14.97
2022-09-18T14:21:14.722Z,15.51
2022-09-18T14:24:02.911Z,15.58
2022-09-18T14:27:03.949Z,15.84
2022-09-18T14:29:33.989Z,15.28
2022-09-18T14:32:03.497Z,14.87
2022-09-18T14:34:35.263Z,14.96
2022-09-18T14:37:19.800Z,14.92
2022-09-18T14:39:49.894Z,14.58
2022-09-18T14:42:23.956Z,15.03
2022-09-18T14:44:54.426Z,14.61
2022-09-18T14:47:24.987Z,14.96
2022-09-18T14:49:53.877Z,14.97
2022-09-18T14:52:24.642Z,14.58
2022-09-18T14:54:54.651Z,14.68
2022-09-18T14:57:27.196Z,14.56
2022-09-18T14:59:58.394Z,14.30
2022-09-18T15:02:33.051Z,14.57
2022-09-18T15:05:03.555Z,14.37
2022-09-18T15:07:31.866Z,14.28
2022-09-18T15:10:02.551Z,14.48
2022-09-18T15:12:34.620Z,14.18
2022-09-18T15:15:26.290Z,13.85
2022-09-18T15:17:57.028Z,14.04
2022-09-18T15:20:27.012Z,14.23
2022-09-18T15:22:57.866Z,14.12
2022-09-18T15:25:31.814Z,14.22
2022-09-18T15:28:07.667Z,14.02
2022-09-18T15:30:38.978Z,14.03
2022-09-18T15:33:18.773Z,14.03
2022-09-18T15:35:53.171Z,13.97
2022-09-18T15:38:26.011Z,13.92
2022-09-18T15:40:55.325Z,13.82
2022-09-18T15:43:40.912Z,14.00
2022-09-18T15:46:11.212Z,14.06
2022-09-18T15:48:44.918Z,14.14
2022-09-18T15:51:16.756Z,13.88
2022-09-18T15:54:04.247Z,13.92
2022-09-18T15:56:34.217Z,13.62
2022-09-18T15:59:05.000Z,13.74
2022-09-18T16:01:36.119Z,13.89
2022-09-18T16:04:16.057Z,13.79
2022-09-18T16:06:54.669Z,14.02
2022-09-18T16:09:26.155Z,13.76
2022-09-18T16:11:54.553Z,13.92
2022-09-18T16:15:02.816Z,13.78
2022-09-18T16:17:40.415Z,13.80
2022-09-18T16:20:38.836Z,13.70
2022-09-18T16:23:16.341Z,13.83
2022-09-18T16:25:45.441Z,13.36
2022-09-18T16:28:23.693Z,13.50
2022-09-18T16:30:53.031Z,13.55
2022-09-18T16:33:24.122Z,13.69
2022-09-18T16:36:01.094Z,13.56
2022-09-18T16:38:29.813Z,13.50
2022-09-18T16:41:00.476Z,13.62
2022-09-18T16:43:29.533Z,13.62
2022-09-18T16:45:57.835Z,13.54
2022-09-18T16:48:26.282Z,13.59
2022-09-18T16:50:55.915Z,13.51
2022-09-18T16:53:24.280Z,13.61
2022-09-18T16:55:56.257Z,13.56
2022-09-18T16:58:27.804Z,13.33
2022-09-18T17:00:56.117Z,13.22
2022-09-18T17:03:27.880Z,13.40
2022-09-18T17:06:01.708Z,13.38
2022-09-18T17:08:30.274Z,13.12
2022-09-18T17:10:59.294Z,13.32
2022-09-18T17:13:27.599Z,12.96
2022-09-18T17:15:58.940Z,13.05
2022-09-18T17:18:29.470Z,13.05
2022-09-18T17:21:01.849Z,13.23
2022-09-18T17:23:32.863Z,13.18
2022-09-18T17:26:06.160Z,13.08
2022-09-18T17:28:34.379Z,13.04
2022-09-18T17:31:09.481Z,13.29
2022-09-18T17:33:38.247Z,13.27
2022-09-18T17:36:12.033Z,13.49
2022-09-18T17:38:41.737Z,13.31
2022-09-18T17:41:12.856Z,13.19
2022-09-18T17:43:44.222Z,13.18
2022-09-18T17:46:13.205Z,13.43
2022-09-18T17:48:41.245Z,13.42
2022-09-18T17:51:11.934Z,13.34
2022-09-18T17:53:40.424Z,13.34
2022-09-18T17:56:09.993Z,13.45
2022-09-18T17:58:40.864Z,13.38
2022-09-18T18:01:10.409Z,13.40
2022-09-18T18:03:39.193Z,13.58
2022-09-18T18:06:07.325Z,13.17
2022-09-18T18:08:38.785Z,13.43
2022-09-18T18:11:08.045Z,13.30
2022-09-18T18:13:38.816Z,13.44
2022-09-18T18:16:07.596Z,13.41
2022-09-18T18:18:35.639Z,13.47
2022-09-18T18:21:03.747Z,13.41
2022-09-18T18:23:34.754Z,13.32
2022-09-18T18:26:05.687Z,13.56
2022-09-18T18:28:35.334Z,13.36
2022-09-18T18:31:08.237Z,13.49
2022-09-18T18:33:37.364Z,13.47
2022-09-18T18:36:09.888Z,13.39
2022-09-18T18:38:38.615Z,13.38
2022-09-18T18:41:08.992Z,13.30
2022-09-18T18:43:40.168Z,13.49
2022-09-18T18:46:13.811Z,13.44
2022-09-18T18:48:44.527Z,13.41
2022-09-18T18:51:15.187Z,13.42
2022-09-18T18:53:44.299Z,13.50
2022-09-18T18:56:15.561Z,13.33
2022-09-18T18:58:45.936Z,13.30
2022-09-18T19:01:16.783Z,13.29
2022-09-18T19:03:53.943Z,13.26
2022-09-18T19:06:23.712Z,13.26
2022-09-18T19:08:56.586Z,13.23
2022-09-18T19:11:26.977Z,13.17
2022-09-18T19:13:57.089Z,13.29
2022-09-18T19:16:27.276Z,13.29
2022-09-18T19:18:58.496Z,13.19
2022-09-18T19:21:28.244Z,13.19
2022-09-18T19:24:00.711Z,13.07
2022-09-18T19:26:32.669Z,13.12
2022-09-18T19:29:04.687Z,13.00
2022-09-18T19:31:35.262Z,12.81
2022-09-18T19:34:03.923Z,12.85
2022-09-18T19:36:32.805Z,12.86
2022-09-18T19:39:04.414Z,12.81
2022-09-18T19:41:39.219Z,12.59
2022-09-18T19:44:13.571Z,12.71
2022-09-18T19:46:42.128Z,12.67
2022-09-18T19:49:15.867Z,12.45
2022-09-18T19:51:44.276Z,12.25
2022-09-18T19:54:12.912Z,12.37
2022-09-18T19:56:48.038Z,12.04
2022-09-18T19:59:18.246Z,12.14
2022-09-18T20:01:46.674Z,11.75
2022-09-18T20:04:15.101Z,11.83
2022-09-18T20:06:47.286Z,11.67
2022-09-18T20:09:15.796Z,11.43
2022-09-18T20:11:48.044Z,11.30
2022-09-18T20:14:18.283Z,11.27
2022-09-18T20:16:46.612Z,11.01
2022-09-18T20:19:17.291Z,10.93
2022-09-18T20:21:45.304Z,10.97
2022-09-18T20:24:13.532Z,10.84
2022-09-18T20:26:41.490Z,10.76
2022-09-18T20:29:15.270Z,10.64
2022-09-18T20:31:46.135Z,10.69
2022-09-18T20:34:14.408Z,10.55
2022-09-18T20:36:42.595Z,10.64
2022-09-18T20:39:10.594Z,10.46
2022-09-18T20:41:39.179Z,10.60
2022-09-18T20:44:07.307Z,10.58
2022-09-18T20:46:37.414Z,10.44
2022-09-18T20:49:08.071Z,10.52
2022-09-18T20:51:36.149Z,10.52
2022-09-18T20:54:06.875Z,10.52
2022-09-18T20:56:36.049Z,10.47
2022-09-18T20:59:04.842Z,10.65
2022-09-18T21:01:35.187Z,10.62
2022-09-18T21:04:04.463Z,10.51
2022-09-18T21:06:34.371Z,10.43
2022-09-18T21:09:05.541Z,10.39
2022-09-18T21:11:36.386Z,10.54
2022-09-18T21:14:05.066Z,10.53
2022-09-18T21:16:34.217Z,10.53
2022-09-18T21:19:04.881Z,10.52
2022-09-18T21:21:35.196Z,10.56
2022-09-18T21:24:04.092Z,10.58
2022-09-18T21:26:33.192Z,10.51
2022-09-18T21:29:02.068Z,10.62
2022-09-18T21:31:30.293Z,10.69
2022-09-18T21:34:00.254Z,10.64
2022-09-18T21:36:28.296Z,10.67
2022-09-18T21:39:15.660Z,10.77
2022-09-18T21:41:46.331Z,10.71
2022-09-18T21:44:15.273Z,10.78
2022-09-18T21:46:44.054Z,10.81
2022-09-18T21:49:12.875Z,10.72
2022-09-18T21:51:41.265Z,10.79
2022-09-18T21:54:15.431Z,10.72
2022-09-18T21:56:44.083Z,10.67
2022-09-18T22:02:38.300Z,10.87
2022-09-18T22:05:11.629Z,10.76
2022-09-18T22:07:40.784Z,10.84
2022-09-18T22:10:09.746Z,10.67
2022-09-18T22:12:38.919Z,10.63
2022-09-18T22:15:08.096Z,10.72
2022-09-18T22:17:39.073Z,10.65
2022-09-18T22:20:07.730Z,10.61
2022-09-18T22:22:36.274Z,10.55
2022-09-18T22:25:04.654Z,10.05
2022-09-18T22:27:32.639Z,10.02
2022-09-18T22:30:00.662Z,9.62
2022-09-18T22:32:28.655Z,9.45
2022-09-18T22:34:58.211Z,9.27
2022-09-18T22:37:26.978Z,9.16
2022-09-18T22:39:56.083Z,9.10
2022-09-18T22:42:24.188Z,9.03
2022-09-18T22:44:52.291Z,8.93
2022-09-18T22:47:20.591Z,8.94
2022-09-18T22:49:48.609Z,8.89
2022-09-18T22:52:17.926Z,8.76
2022-09-18T22:54:46.002Z,8.52
2022-09-18T22:57:14.243Z,8.48
2022-09-18T22:59:42.376Z,8.48
2022-09-18T23:02:10.602Z,8.44
2022-09-18T23:04:40.800Z,8.54
2022-09-18T23:07:08.800Z,8.82
2022-09-18T23:09:38.098Z,8.68
2022-09-18T23:12:06.308Z,8.64
2022-09-18T23:14:34.321Z,8.75
2022-09-18T23:17:02.883Z,8.53
2022-09-18T23:19:31.975Z,8.35
2022-09-18T23:22:00.245Z,8.72
2022-09-18T23:24:28.720Z,8.35
2022-09-18T23:26:58.697Z,8.78
2022-09-18T23:29:27.730Z,8.52
2022-09-18T23:31:58.277Z,8.49
2022-09-18T23:34:29.644Z,8.81
2022-09-18T23:36:59.854Z,8.56
2022-09-18T23:39:28.620Z,8.23
2022-09-18T23:41:59.228Z,8.48
2022-09-18T23:44:30.058Z,8.70
2022-09-18T23:46:58.127Z,8.72
2022-09-18T23:49:26.659Z,8.40
2022-09-18T23:51:54.956Z,8.18
2022-09-18T23:54:26.519Z,8.33
2022-09-18T23:56:58.151Z,8.26
2022-09-18T23:59:26.850Z,8.14
